Time;durP1;ratioP1;P1;durP2;ratioP2;P2;SDS_P1;SDS_P2;PMS_P1;PMS_P2;Temp;Humidity;BMP_temperature;BMP_pressure;BME280_temperature;BME280_humidity;BME280_pressure;Samples;Min_cycle;Max_cycle;Signal;HPM_P1;HPM_P2
2024/01/12 00:00:59;;;;;;;32.70;16.30;;;;;;;-0.68;82.98;98146.38;78609;1294;3027682;-69
2024/01/12 00:03:26;;;;;;;37.50;16.90;;;;;;;-0.81;83.52;98154.77;79793;1294;3015144;-72
2024/01/12 00:05:53;;;;;;;34.70;17.10;;;;;;;-1.02;84.03;98147.06;79755;1293;3013415;-69
2024/01/12 00:08:20;;;;;;;35.80;15.80;;;;;;;-1.02;84.60;98147.58;78679;1294;3026713;-72
2024/01/12 00:10:47;;;;;;;35.00;15.20;;;;;;;-1.04;84.74;98150.73;79812;1295;3021256;-72
2024/01/12 00:13:14;;;;;;;35.70;16.50;;;;;;;-1.05;84.30;98155.06;79800;1297;3011663;-68
2024/01/12 00:15:42;;;;;;;23.10;10.10;;;;;;;-1.06;84.31;98153.20;78523;1297;3028526;-70
2024/01/12 00:18:08;;;;;;;25.00;12.10;;;;;;;-0.49;83.75;98157.02;79650;1295;3013002;-69
2024/01/12 00:20:36;;;;;;;21.40;12.40;;;;;;;0.18;81.07;98154.16;79701;1293;3012721;-68
2024/01/12 00:23:04;;;;;;;24.90;11.90;;;;;;;0.04;79.79;98165.21;78469;1294;3050040;-72
2024/01/12 00:25:30;;;;;;;28.50;13.20;;;;;;;-0.18;80.37;98178.63;79685;1294;3020511;-71
2024/01/12 00:27:57;;;;;;;22.60;11.00;;;;;;;-0.40;80.76;98182.19;79736;1295;3012680;-69
2024/01/12 00:30:25;;;;;;;28.30;13.30;;;;;;;-0.73;81.82;98168.73;78479;1294;3026287;-70
2024/01/12 00:32:51;;;;;;;26.20;12.80;;;;;;;-0.82;82.07;98172.50;79692;1295;3018571;-71
2024/01/12 00:35:18;;;;;;;28.40;14.30;;;;;;;-0.88;82.12;98177.34;79676;1294;3013505;-69
2024/01/12 00:37:48;;;;;;;28.70;14.50;;;;;;;-0.97;82.28;98178.52;78481;1295;3026500;-66
2024/01/12 00:40:15;;;;;;;34.90;16.60;;;;;;;-1.40;83.70;98185.27;79719;1295;3013367;-68
2024/01/12 00:42:44;;;;;;;40.00;17.50;;;;;;;-1.43;84.40;98180.21;79118;1294;3012063;-71
2024/01/12 00:45:11;;;;;;;23.30;11.00;;;;;;;-1.59;84.74;98192.41;79713;1297;3013368;-70
2024/01/12 00:47:37;;;;;;;23.00;11.10;;;;;;;-1.18;84.62;98188.48;79886;1297;3011616;-71
2024/01/12 00:50:05;;;;;;;14.50;7.50;;;;;;;-0.74;82.65;98187.88;78728;1294;3026145;-73
2024/01/12 00:52:32;;;;;;;19.60;9.30;;;;;;;-0.72;82.21;98189.84;79724;1295;3015009;-73
2024/01/12 00:54:59;;;;;;;22.80;10.00;;;;;;;-0.88;81.54;98195.92;79613;1294;3011550;-71
2024/01/12 00:57:27;;;;;;;16.80;8.60;;;;;;;-0.99;80.96;98195.59;78334;1297;3049394;-72
2024/01/12 00:59:54;;;;;;;15.90;7.40;;;;;;;-1.33;81.66;98195.52;79759;1298;3013291;-69
2024/01/12 01:02:20;;;;;;;20.20;8.80;;;;;;;-1.47;82.36;98206.10;79738;1295;3013135;-69
2024/01/12 01:04:48;;;;;;;11.50;6.10;;;;;;;-1.55;82.32;98206.52;78454;1298;3025835;-70
2024/01/12 01:07:15;;;;;;;14.80;7.20;;;;;;;-1.88;82.29;98214.92;79917;1295;3013652;-70
2024/01/12 01:09:41;;;;;;;14.10;6.70;;;;;;;-1.96;82.53;98206.59;79743;1294;3013058;-68
2024/01/12 01:12:09;;;;;;;9.60;5.30;;;;;;;-2.11;82.92;98212.35;78512;1298;3028170;-71
2024/01/12 01:14:36;;;;;;;12.50;6.00;;;;;;;-2.14;82.78;98222.89;79729;1295;3013165;-71
2024/01/12 01:17:03;;;;;;;11.40;5.30;;;;;;;-2.26;83.37;98220.14;79693;1298;3013240;-70
2024/01/12 01:19:32;;;;;;;6.30;4.00;;;;;;;-2.19;83.68;98221.32;78442;1295;3028219;-71
2024/01/12 01:21:58;;;;;;;5.70;2.80;;;;;;;-2.42;82.92;98219.76;79662;1296;3012985;-72
2024/01/12 01:24:28;;;;;;;6.90;1.90;;;;;;;-2.55;83.13;98220.95;79734;1295;3011922;-73
2024/01/12 01:26:56;;;;;;;5.80;2.70;;;;;;;-1.96;82.09;98225.96;78510;1295;3049530;-70
2024/01/12 01:29:23;;;;;;;3.90;1.90;;;;;;;-1.38;80.01;98227.63;79706;1298;3013607;-69
2024/01/12 01:31:49;;;;;;;2.80;1.50;;;;;;;-1.59;78.80;98228.48;79715;1295;3013178;-68
2024/01/12 01:34:17;;;;;;;2.80;1.40;;;;;;;-1.77;78.58;98225.91;78539;1298;3027498;-73
2024/01/12 01:36:44;;;;;;;3.10;1.50;;;;;;;-1.95;78.17;98230.74;79727;1294;3013184;-72
2024/01/12 01:39:10;;;;;;;6.40;1.60;;;;;;;-2.02;78.05;98226.48;79711;1298;3011834;-70
2024/01/12 01:41:38;;;;;;;2.80;1.10;;;;;;;-2.22;78.17;98234.44;78610;1297;3028667;-71
2024/01/12 01:44:05;;;;;;;2.00;1.20;;;;;;;-2.34;78.42;98239.58;79753;1297;3013658;-69
2024/01/12 01:46:31;;;;;;;2.70;1.50;;;;;;;-2.44;78.02;98244.67;79857;1297;3013269;-70
2024/01/12 01:48:59;;;;;;;3.50;1.80;;;;;;;-2.55;77.84;98249.08;78538;1294;3026041;-71
2024/01/12 01:51:25;;;;;;;6.60;1.70;;;;;;;-2.55;78.14;98249.58;79660;1295;3013579;-71
2024/01/12 01:53:52;;;;;;;3.20;1.50;;;;;;;-2.53;77.87;98253.48;79405;1297;3012786;-69
2024/01/12 01:56:22;;;;;;;3.70;2.10;;;;;;;-2.59;77.98;98255.52;78548;1298;3025112;-70
2024/01/12 01:58:49;;;;;;;4.60;1.70;;;;;;;-2.65;77.90;98269.23;79527;1296;3013331;-69
2024/01/12 02:01:15;;;;;;;5.20;2.80;;;;;;;-2.70;78.34;98271.23;79960;1294;3013642;-71
2024/01/12 02:03:43;;;;;;;3.20;1.40;;;;;;;-2.78;78.97;98282.92;78355;1300;3050111;-70
2024/01/12 02:06:10;;;;;;;1.90;1.00;;;;;;;-2.91;78.37;98292.67;79769;1294;3018455;-70
2024/01/12 02:08:37;;;;;;;2.20;1.40;;;;;;;-3.20;77.69;98298.87;79524;1295;3011936;-71
2024/01/12 02:11:06;;;;;;;1.50;0.90;;;;;;;-3.33;76.39;98306.02;78333;1299;3026806;-72
2024/01/12 02:13:33;;;;;;;1.80;0.90;;;;;;;-3.70;75.17;98306.98;79730;1295;3013705;-69
2024/01/12 02:15:59;;;;;;;0.70;0.70;;;;;;;-3.89;73.44;98320.23;79864;1295;3011837;-72
2024/01/12 02:18:27;;;;;;;2.10;0.90;;;;;;;-3.93;72.20;98316.37;78293;1295;3051490;-72
2024/01/12 02:20:57;;;;;;;5.40;1.50;;;;;;;-4.15;72.07;98326.73;79806;1295;3019017;-71
2024/01/12 02:23:25;;;;;;;2.70;1.00;;;;;;;-4.27;71.06;98331.06;79203;1295;3014127;-70
2024/01/12 02:25:52;;;;;;;4.00;1.20;;;;;;;-4.20;69.60;98332.30;79680;1294;3013676;-72
2024/01/12 02:28:18;;;;;;;3.40;1.10;;;;;;;-4.18;68.36;98339.97;79701;1296;3013156;-72
2024/01/12 02:30:46;;;;;;;2.10;1.20;;;;;;;-4.41;67.12;98348.26;78567;1297;3028933;-72
2024/01/12 02:33:13;;;;;;;5.40;1.30;;;;;;;-4.62;66.72;98362.96;79834;1297;3013137;-72
2024/01/12 02:35:39;;;;;;;2.20;1.10;;;;;;;-4.55;66.86;98354.48;79719;1297;3011557;-71
2024/01/12 02:38:07;;;;;;;1.70;1.10;;;;;;;-4.74;66.44;98364.54;78526;1294;3026133;-72
2024/01/12 02:40:33;;;;;;;4.90;1.70;;;;;;;-4.80;66.67;98361.90;79634;1294;3012930;-71
2024/01/12 02:43:01;;;;;;;8.50;1.60;;;;;;;-4.94;66.29;98368.78;79656;1298;3011708;-71
2024/01/12 02:45:29;;;;;;;3.10;1.80;;;;;;;-4.98;66.49;98367.65;78607;1298;3052160;-71
2024/01/12 02:47:55;;;;;;;7.30;2.20;;;;;;;-4.98;65.83;98371.06;79666;1298;3013155;-71
2024/01/12 02:50:22;;;;;;;6.80;2.30;;;;;;;-5.20;65.80;98372.23;79778;1298;3013256;-70
2024/01/12 02:52:50;;;;;;;5.10;2.10;;;;;;;-5.55;65.97;98383.47;78387;1294;3026713;-73
2024/01/12 02:55:17;;;;;;;2.40;1.60;;;;;;;-5.63;65.95;98384.59;79777;1298;3018651;-72
2024/01/12 02:57:43;;;;;;;5.40;1.60;;;;;;;-5.75;65.84;98404.36;79621;1296;3011654;-71
2024/01/12 03:00:12;;;;;;;2.80;1.70;;;;;;;-6.03;65.94;98402.49;78583;1297;3027748;-72
2024/01/12 03:02:40;;;;;;;3.50;1.40;;;;;;;-6.06;66.28;98404.73;79752;1298;3013542;-72
2024/01/12 03:05:07;;;;;;;3.70;1.20;;;;;;;-6.06;66.28;98414.79;79763;1295;3013086;-73
2024/01/12 03:07:34;;;;;;;1.90;1.40;;;;;;;-6.22;66.21;98411.38;78476;1297;3049062;-70
2024/01/12 03:10:01;;;;;;;3.40;1.30;;;;;;;-6.26;65.96;98427.11;79762;1295;3013569;-73
2024/01/12 03:12:28;;;;;;;2.10;1.40;;;;;;;-6.39;65.68;98422.61;79698;1296;3012609;-73
2024/01/12 03:14:56;;;;;;;2.10;1.20;;;;;;;-6.36;65.06;98435.55;78479;1294;3026587;-71
2024/01/12 03:17:22;;;;;;;5.50;1.10;;;;;;;-6.40;64.32;98426.89;79653;1297;3013312;-72
2024/01/12 03:19:48;;;;;;;2.30;1.10;;;;;;;-6.62;64.14;98448.88;79649;1295;3012331;-73
2024/01/12 03:22:16;;;;;;;2.90;1.50;;;;;;;-6.50;64.06;98458.67;78324;1295;3025997;-72
2024/01/12 03:24:43;;;;;;;2.60;1.40;;;;;;;-6.70;64.21;98468.02;79698;1298;3013301;-72
2024/01/12 03:27:09;;;;;;;3.50;1.30;;;;;;;-6.67;63.15;98461.86;79786;1298;3011993;-72
2024/01/12 03:29:37;;;;;;;2.70;1.00;;;;;;;-6.77;62.79;98463.47;78507;1298;3025181;-73
2024/01/12 03:32:04;;;;;;;1.80;1.00;;;;;;;-6.83;63.21;98477.63;79643;1298;3013059;-74
2024/01/12 03:34:31;;;;;;;2.40;1.10;;;;;;;-6.70;62.93;98489.31;79610;1298;3013319;-74
2024/01/12 03:36:58;;;;;;;3.10;1.50;;;;;;;-6.68;63.23;98497.98;78587;1295;3026512;-74
2024/01/12 03:39:25;;;;;;;2.40;1.00;;;;;;;-6.72;63.55;98510.61;79720;1295;3013603;-72
2024/01/12 03:41:52;;;;;;;3.10;1.30;;;;;;;-6.72;63.30;98511.46;79709;1298;3011507;-74
2024/01/12 03:44:20;;;;;;;2.70;1.60;;;;;;;-6.71;63.50;98521.52;78520;1298;3051786;-73
2024/01/12 03:46:47;;;;;;;1.20;0.90;;;;;;;-6.67;63.80;98530.85;79758;1298;3013397;-74
2024/01/12 03:49:13;;;;;;;3.30;1.50;;;;;;;-6.65;63.69;98532.03;79736;1295;3013400;-74
2024/01/12 03:51:43;;;;;;;3.00;1.40;;;;;;;-6.77;63.48;98541.48;78421;1296;3026461;-70
2024/01/12 03:54:11;;;;;;;1.70;1.10;;;;;;;-6.77;63.91;98548.80;79730;1294;3011988;-70
2024/01/12 03:56:40;;;;;;;1.70;1.50;;;;;;;-7.05;63.86;98549.11;79266;1294;3011577;-70
2024/01/12 03:59:06;;;;;;;2.00;0.80;;;;;;;-6.95;63.29;98543.77;79709;1298;3013308;-69
2024/01/12 04:01:33;;;;;;;3.60;1.70;;;;;;;-6.78;62.42;98558.52;79708;1295;3011907;-72
2024/01/12 04:04:01;;;;;;;4.00;2.10;;;;;;;-6.76;62.67;98557.30;78257;1298;3029534;-70
2024/01/12 04:06:28;;;;;;;4.90;2.30;;;;;;;-6.88;62.40;98564.52;79728;1294;3013686;-70
2024/01/12 04:08:55;;;;;;;4.90;1.30;;;;;;;-6.91;62.07;98564.20;79716;1297;3011644;-68
2024/01/12 04:11:23;;;;;;;1.70;0.90;;;;;;;-6.98;61.32;98569.67;78515;1295;3048781;-69
2024/01/12 04:13:50;;;;;;;2.70;1.10;;;;;;;-7.08;61.26;98585.04;79740;1295;3013170;-68
2024/01/12 04:16:16;;;;;;;2.10;1.10;;;;;;;-7.10;61.37;98589.80;79771;1297;3011866;-69
2024/01/12 04:18:44;;;;;;;2.20;1.00;;;;;;;-7.15;62.24;98617.58;78408;1298;3051166;-68
2024/01/12 04:21:12;;;;;;;2.70;0.90;;;;;;;-6.97;61.51;98615.64;79782;1295;3013664;-69
2024/01/12 04:23:39;;;;;;;2.10;1.30;;;;;;;-7.15;60.92;98618.24;79761;1293;3013052;-69
2024/01/12 04:26:07;;;;;;;3.50;1.10;;;;;;;-7.13;61.65;98621.98;78620;1298;3050534;-69
2024/01/12 04:28:34;;;;;;;4.10;1.40;;;;;;;-7.18;61.69;98621.65;79833;1298;3018764;-70
2024/01/12 04:31:02;;;;;;;2.00;1.10;;;;;;;-7.30;61.31;98621.02;79849;1298;3012043;-70
2024/01/12 04:33:30;;;;;;;1.90;1.10;;;;;;;-7.26;61.63;98626.11;78637;1293;3051612;-69
2024/01/12 04:35:57;;;;;;;1.50;1.30;;;;;;;-7.35;61.70;98640.25;79733;1295;3013421;-69
2024/01/12 04:38:25;;;;;;;2.00;1.20;;;;;;;-7.31;62.17;98637.01;79749;1295;3011762;-70
2024/01/12 04:40:53;;;;;;;2.80;1.40;;;;;;;-7.43;62.60;98651.33;78509;1296;3049292;-69
2024/01/12 04:43:20;;;;;;;2.50;1.00;;;;;;;-7.56;62.83;98653.02;79718;1297;3012957;-70
2024/01/12 04:45:46;;;;;;;1.40;1.10;;;;;;;-7.49;62.60;98660.86;79783;1297;3012286;-72
2024/01/12 04:48:14;;;;;;;2.10;1.10;;;;;;;-7.57;62.01;98667.16;78496;1298;3025224;-73
2024/01/12 04:50:40;;;;;;;1.80;1.20;;;;;;;-7.55;62.25;98680.09;79761;1295;3019135;-73
2024/01/12 04:53:07;;;;;;;4.10;1.50;;;;;;;-7.59;61.92;98685.70;79737;1297;3013051;-70
2024/01/12 04:55:35;;;;;;;3.00;1.40;;;;;;;-7.53;62.26;98696.42;78753;1298;3026597;-70
2024/01/12 04:58:03;;;;;;;2.80;1.00;;;;;;;-7.72;62.21;98705.26;79696;1297;3013693;-69
2024/01/12 05:00:30;;;;;;;3.50;1.50;;;;;;;-7.91;61.51;98713.56;79705;1295;3011842;-69
2024/01/12 05:02:59;;;;;;;2.40;1.30;;;;;;;-8.03;62.07;98708.78;78568;1298;3052431;-69
2024/01/12 05:05:26;;;;;;;6.90;2.40;;;;;;;-8.04;62.32;98708.95;79823;1295;3013556;-70
2024/01/12 05:07:52;;;;;;;10.40;3.00;;;;;;;-8.01;62.10;98710.14;79694;1295;3011965;-68
2024/01/12 05:10:20;;;;;;;4.90;2.20;;;;;;;-8.03;62.61;98719.50;78623;1296;3027106;-69
2024/01/12 05:12:47;;;;;;;2.30;1.30;;;;;;;-7.94;62.38;98723.93;79892;1298;3013261;-68
2024/01/12 05:15:15;;;;;;;4.60;1.90;;;;;;;-8.18;62.57;98728.78;79591;1295;3013375;-68
2024/01/12 05:17:43;;;;;;;6.10;2.50;;;;;;;-8.26;62.53;98732.69;78598;1298;3051761;-69
2024/01/12 05:20:10;;;;;;;4.50;1.70;;;;;;;-8.29;62.47;98744.89;79909;1295;3012957;-70
2024/01/12 05:22:36;;;;;;;5.80;2.40;;;;;;;-8.27;62.46;98746.44;79745;1298;3011654;-69
2024/01/12 05:25:05;;;;;;;2.10;1.30;;;;;;;-8.21;62.45;98744.76;78498;1295;3027759;-69
2024/01/12 05:27:32;;;;;;;1.80;1.50;;;;;;;-8.19;62.11;98750.89;79730;1294;3012886;-70
2024/01/12 05:29:58;;;;;;;13.50;3.30;;;;;;;-8.47;62.60;98763.55;79729;1295;3013890;-69
2024/01/12 05:32:26;;;;;;;4.50;1.70;;;;;;;-8.49;63.37;98766.41;78525;1294;3050540;-69
2024/01/12 05:34:52;;;;;;;3.20;1.50;;;;;;;-8.40;62.85;98768.99;79939;1294;3012397;-71
2024/01/12 05:37:19;;;;;;;4.10;1.70;;;;;;;-8.55;63.39;98773.19;79786;1295;3013230;-69
2024/01/12 05:39:47;;;;;;;3.20;1.60;;;;;;;-8.40;63.12;98774.93;78693;1295;3026605;-69
2024/01/12 05:42:13;;;;;;;5.10;2.50;;;;;;;-8.50;63.28;98782.02;79798;1298;3013824;-68
2024/01/12 05:44:40;;;;;;;6.20;2.10;;;;;;;-8.45;63.81;98784.60;79898;1298;3011480;-69
2024/01/12 05:47:07;;;;;;;3.80;1.80;;;;;;;-8.39;63.03;98785.13;78422;1295;3025453;-70
2024/01/12 05:49:36;;;;;;;3.30;1.40;;;;;;;-8.41;63.14;98793.78;79787;1295;3013458;-69
2024/01/12 05:52:03;;;;;;;4.40;1.70;;;;;;;-8.50;63.29;98794.78;79721;1298;3013591;-72
2024/01/12 05:54:31;;;;;;;6.00;1.70;;;;;;;-8.58;63.10;98800.86;78601;1297;3050535;-72
2024/01/12 05:56:58;;;;;;;4.10;2.40;;;;;;;-8.53;63.43;98802.92;79963;1298;3019154;-70
2024/01/12 05:59:24;;;;;;;3.40;2.00;;;;;;;-8.57;63.47;98804.09;79724;1295;3013516;-71
2024/01/12 06:01:54;;;;;;;3.00;1.50;;;;;;;-8.60;63.82;98803.23;78648;1297;3025952;-72
2024/01/12 06:04:20;;;;;;;6.20;2.30;;;;;;;-8.58;63.96;98803.05;79758;1298;3013428;-70
2024/01/12 06:06:48;;;;;;;3.10;1.90;;;;;;;-8.60;63.82;98816.30;79734;1295;3011346;-72
2024/01/12 06:09:17;;;;;;;4.70;2.20;;;;;;;-8.76;64.12;98813.66;78644;1298;3050008;-73
2024/01/12 06:11:44;;;;;;;4.30;2.10;;;;;;;-8.61;64.11;98821.89;80110;1298;3012721;-71
2024/01/12 06:14:10;;;;;;;3.00;1.60;;;;;;;-8.52;64.10;98824.83;79798;1294;3013743;-71
2024/01/12 06:16:38;;;;;;;3.30;1.40;;;;;;;-8.11;62.55;98834.86;78798;1295;3051408;-73
2024/01/12 06:19:05;;;;;;;2.70;1.60;;;;;;;-7.33;61.15;98835.95;79705;1296;3018523;-69
2024/01/12 06:21:31;;;;;;;5.60;2.00;;;;;;;-7.27;60.18;98842.25;79652;1298;3011642;-69
2024/01/12 06:23:59;;;;;;;3.70;1.70;;;;;;;-7.38;60.32;98841.38;78630;1298;3029013;-71
2024/01/12 06:26:26;;;;;;;10.40;2.60;;;;;;;-7.49;59.91;98846.46;79778;1298;3013695;-70
2024/01/12 06:28:52;;;;;;;5.20;2.30;;;;;;;-7.96;60.62;98856.02;79737;1295;3011691;-69
2024/01/12 06:31:20;;;;;;;4.80;2.00;;;;;;;-8.04;61.02;98862.77;78756;1295;3025754;-70
2024/01/12 06:33:46;;;;;;;5.10;2.20;;;;;;;-8.24;61.77;98852.98;79909;1295;3018236;-71
2024/01/12 06:36:13;;;;;;;7.30;2.80;;;;;;;-8.46;62.64;98861.05;79852;1294;3012152;-71
2024/01/12 06:38:41;;;;;;;4.00;2.00;;;;;;;-8.36;62.58;98860.06;78778;1298;3025835;-72
2024/01/12 06:41:09;;;;;;;7.30;2.80;;;;;;;-8.36;62.22;98866.18;79766;1298;3013630;-72
2024/01/12 06:43:35;;;;;;;4.30;2.40;;;;;;;-8.44;62.52;98874.30;79853;1298;3013650;-73
2024/01/12 06:46:06;;;;;;;9.00;3.10;;;;;;;-8.49;62.74;98870.02;78594;1298;3050484;-71
2024/01/12 06:48:34;;;;;;;7.90;2.50;;;;;;;-8.50;62.72;98885.64;79862;1295;3013170;-71
2024/01/12 06:51:02;;;;;;;5.80;2.60;;;;;;;-8.46;62.88;98887.89;78469;1295;3026445;-67
2024/01/12 06:53:29;;;;;;;5.10;2.40;;;;;;;-8.75;63.45;98889.38;79685;1295;3018869;-72
2024/01/12 06:55:55;;;;;;;6.40;2.90;;;;;;;-8.60;63.85;98895.95;79717;1298;3011960;-73
2024/01/12 06:58:24;;;;;;;7.40;2.50;;;;;;;-8.49;63.41;98900.27;78639;1295;3028511;-72
2024/01/12 07:00:50;;;;;;;4.60;2.20;;;;;;;-8.58;63.68;98905.48;79855;1298;3013064;-72
2024/01/12 07:03:17;;;;;;;5.80;2.60;;;;;;;-8.54;63.76;98915.86;79747;1295;3011655;-71
2024/01/12 07:05:45;;;;;;;6.50;2.20;;;;;;;-8.49;63.80;98924.05;78566;1292;3048977;-71
2024/01/12 07:08:11;;;;;;;6.00;3.10;;;;;;;-8.44;63.48;98924.91;79804;1291;3012821;-71
2024/01/12 07:10:38;;;;;;;5.00;2.60;;;;;;;-8.17;63.03;98926.45;79841;1291;3011619;-70
2024/01/12 07:13:06;;;;;;;4.50;1.90;;;;;;;-8.38;63.09;98930.23;78532;1294;3024849;-70
2024/01/12 07:15:33;;;;;;;5.30;2.50;;;;;;;-8.28;62.88;98929.44;79881;1294;3020539;-70
2024/01/12 07:18:00;;;;;;;7.50;2.50;;;;;;;-8.02;63.15;98933.15;80095;1292;3011674;-72
2024/01/12 07:20:28;;;;;;;7.40;3.20;;;;;;;-7.73;62.21;98933.82;78868;1294;3048397;-72
2024/01/12 07:22:55;;;;;;;9.00;2.40;;;;;;;-7.81;61.87;98940.08;80005;1292;3012903;-70
2024/01/12 07:25:21;;;;;;;6.50;3.10;;;;;;;-8.07;62.81;98940.95;80121;1295;3011756;-71
2024/01/12 07:27:49;;;;;;;7.10;2.90;;;;;;;-8.26;63.21;98955.27;78702;1295;3026565;-72
2024/01/12 07:30:16;;;;;;;5.30;2.30;;;;;;;-8.30;63.69;98954.73;80097;1295;3012488;-68
2024/01/12 07:32:43;;;;;;;4.80;2.60;;;;;;;-8.33;63.43;98961.85;79937;1292;3013609;-72
2024/01/12 07:35:12;;;;;;;5.40;2.40;;;;;;;-8.24;63.48;98968.71;78710;1292;3026004;-71
2024/01/12 07:37:39;;;;;;;5.90;2.50;;;;;;;-8.17;64.13;98971.14;79965;1295;3014814;-68
2024/01/12 07:40:07;;;;;;;5.60;2.60;;;;;;;-8.21;63.87;98975.36;80165;1295;3013143;-73
2024/01/12 07:42:35;;;;;;;4.90;2.40;;;;;;;-8.10;63.57;98979.67;78658;1294;3051627;-74
2024/01/12 07:45:01;;;;;;;7.40;3.10;;;;;;;-8.57;64.02;98970.20;79946;1294;3013025;-74
2024/01/12 07:47:28;;;;;;;5.30;2.90;;;;;;;-8.50;64.50;98977.36;79800;1292;3013190;-72
2024/01/12 07:49:56;;;;;;;5.30;2.30;;;;;;;-8.61;64.15;98977.13;78635;1292;3026579;-72
2024/01/12 07:52:22;;;;;;;6.70;3.00;;;;;;;-8.61;64.67;98975.92;79923;1292;3018443;-71
2024/01/12 07:54:49;;;;;;;9.50;3.40;;;;;;;-8.51;64.14;98979.08;79936;1294;3011626;-73
2024/01/12 07:57:17;;;;;;;5.70;2.70;;;;;;;-8.37;63.90;98981.04;78942;1294;3026750;-72
2024/01/12 07:59:43;;;;;;;7.70;3.40;;;;;;;-8.25;63.26;98994.52;80124;1291;3013480;-70
2024/01/12 08:02:10;;;;;;;8.80;3.50;;;;;;;-8.23;62.95;98991.33;79947;1292;3011927;-71
2024/01/12 08:04:38;;;;;;;5.00;2.70;;;;;;;-8.50;63.04;98995.22;78633;1295;3028554;-69
2024/01/12 08:07:06;;;;;;;5.50;2.60;;;;;;;-8.46;63.25;98997.43;79906;1297;3019169;-73
2024/01/12 08:09:32;;;;;;;7.20;3.10;;;;;;;-8.41;63.83;98993.40;79842;1292;3011790;-73
2024/01/12 08:12:02;;;;;;;5.90;2.10;;;;;;;-8.39;63.55;98991.89;78767;1295;3052338;-72
2024/01/12 08:14:29;;;;;;;5.40;2.60;;;;;;;-8.23;63.55;98996.92;80010;1294;3011612;-69
2024/01/12 08:16:55;;;;;;;7.00;2.90;;;;;;;-8.03;62.71;98996.04;80529;1292;3011458;-70
2024/01/12 08:19:23;;;;;;;10.40;3.50;;;;;;;-7.66;61.96;98996.77;79099;1293;3048223;-70
2024/01/12 08:21:49;;;;;;;7.00;3.20;;;;;;;-7.78;60.96;99007.61;79905;1292;3014951;-69
2024/01/12 08:24:16;;;;;;;7.30;3.30;;;;;;;-7.84;61.08;99010.28;80015;1292;3013071;-67
2024/01/12 08:26:45;;;;;;;5.50;2.20;;;;;;;-7.80;60.82;99005.20;78632;1295;3028805;-70
2024/01/12 08:29:11;;;;;;;6.60;2.70;;;;;;;-7.86;60.55;99019.45;79860;1292;3013515;-68
2024/01/12 08:31:38;;;;;;;4.50;2.20;;;;;;;-7.86;60.76;99014.52;79870;1292;3011984;-69
2024/01/12 08:34:06;;;;;;;4.10;2.10;;;;;;;-8.07;60.79;99010.81;78541;1295;3049082;-68
2024/01/12 08:36:32;;;;;;;7.10;2.80;;;;;;;-8.30;61.47;99012.17;79772;1292;3012927;-68
2024/01/12 08:38:59;;;;;;;5.80;2.50;;;;;;;-8.07;61.57;99022.54;79796;1293;3013158;-69
2024/01/12 08:41:27;;;;;;;7.50;3.40;;;;;;;-8.00;60.93;99016.48;78725;1295;3028750;-70
2024/01/12 08:43:53;;;;;;;6.30;2.90;;;;;;;-8.10;60.79;99011.98;79752;1292;3013333;-70
2024/01/12 08:46:20;;;;;;;6.60;3.00;;;;;;;-7.99;61.06;99012.23;79782;1292;3014457;-70
2024/01/12 08:48:48;;;;;;;4.30;2.70;;;;;;;-7.75;60.66;99014.09;78517;1295;3026970;-70
2024/01/12 08:51:16;;;;;;;10.50;3.40;;;;;;;-7.78;60.89;99017.48;80031;1290;3013650;-71
2024/01/12 08:53:42;;;;;;;4.00;2.00;;;;;;;-7.65;60.10;99019.73;80043;1295;3012840;-72
2024/01/12 08:56:10;;;;;;;5.50;2.50;;;;;;;-7.85;59.89;99021.32;78648;1304;3053670;-73
2024/01/12 08:58:38;;;;;;;7.60;2.30;;;;;;;-8.05;60.45;99027.49;80038;1294;3013225;-75
2024/01/12 09:01:05;;;;;;;6.70;2.30;;;;;;;-8.08;60.52;99017.44;80126;1292;3011957;-75
2024/01/12 09:03:32;;;;;;;8.60;2.80;;;;;;;-8.17;61.38;99019.92;78738;1297;3049309;-72
2024/01/12 09:05:59;;;;;;;7.00;2.30;;;;;;;-8.09;60.83;99015.05;79871;1292;3013028;-73
2024/01/12 09:08:26;;;;;;;3.40;1.80;;;;;;;-8.13;61.19;99012.13;79783;1293;3011451;-71
2024/01/12 09:10:54;;;;;;;4.00;2.10;;;;;;;-8.18;60.48;99018.04;78783;1295;3025985;-75
2024/01/12 09:13:20;;;;;;;8.60;2.10;;;;;;;-8.19;60.66;99008.17;80007;1297;3012882;-75
2024/01/12 09:15:46;;;;;;;6.30;2.40;;;;;;;-8.06;61.02;99009.80;79727;1295;3011784;-70
2024/01/12 09:18:14;;;;;;;5.30;2.00;;;;;;;-7.85;60.49;99013.68;78705;1292;3026751;-73
2024/01/12 09:20:41;;;;;;;4.20;1.70;;;;;;;-7.78;59.30;99011.85;80274;1295;3013417;-74
2024/01/12 09:23:08;;;;;;;6.70;2.70;;;;;;;-7.55;59.05;99013.68;79789;1295;3014117;-70
2024/01/12 09:25:36;;;;;;;4.20;1.90;;;;;;;-7.49;58.94;99019.14;78879;1295;3026147;-70
2024/01/12 09:28:03;;;;;;;6.00;2.20;;;;;;;-7.43;58.48;99021.23;79981;1295;3019230;-71
2024/01/12 09:30:29;;;;;;;8.40;2.40;;;;;;;-7.47;57.95;99026.13;80382;1292;3011860;-72
2024/01/12 09:32:57;;;;;;;5.60;1.60;;;;;;;-7.45;58.28;99028.20;78589;1291;3025324;-70
2024/01/12 09:35:24;;;;;;;4.20;1.80;;;;;;;-7.45;57.85;99026.32;79977;1292;3018929;-67
2024/01/12 09:37:50;;;;;;;4.10;2.10;;;;;;;-7.59;58.31;99028.96;79638;1294;3012008;-71
2024/01/12 09:40:19;;;;;;;6.60;2.10;;;;;;;-7.19;57.75;99033.23;78687;1294;3052830;-71
2024/01/12 09:42:46;;;;;;;6.10;2.70;;;;;;;-7.03;56.83;99033.30;79917;1292;3012978;-71
2024/01/12 09:45:13;;;;;;;5.40;2.60;;;;;;;-7.22;57.40;99043.79;79732;1296;3011655;-71
2024/01/12 09:47:42;;;;;;;5.30;2.30;;;;;;;-7.59;58.41;99052.95;78740;1294;3048822;-71
2024/01/12 09:50:10;;;;;;;8.20;2.60;;;;;;;-7.54;58.94;99052.65;79814;1295;3013658;-71
2024/01/12 09:52:39;;;;;;;5.20;2.20;;;;;;;-7.36;59.01;99057.16;79827;1292;3013407;-71
2024/01/12 09:55:06;;;;;;;4.30;2.10;;;;;;;-7.10;58.11;99061.88;79829;1295;3012936;-70
2024/01/12 09:57:34;;;;;;;8.30;2.60;;;;;;;-7.45;58.21;99065.27;79896;1295;3011554;-72
2024/01/12 10:00:03;;;;;;;6.60;1.90;;;;;;;-7.63;58.33;99065.01;78529;1294;3052160;-70
2024/01/12 10:02:35;;;;;;;2.10;1.30;;;;;;;-7.81;59.06;99067.27;79930;1292;3011608;-70
2024/01/12 10:05:03;;;;;;;2.00;0.90;;;;;;;-7.77;58.58;99069.69;78721;1295;3049924;-73
2024/01/12 10:07:30;;;;;;;3.10;1.50;;;;;;;-7.69;58.06;99066.33;80062;1291;3012792;-71
2024/01/12 10:09:57;;;;;;;3.30;1.80;;;;;;;-7.73;58.12;99065.29;80053;1292;3011938;-74
2024/01/12 10:12:25;;;;;;;2.40;1.40;;;;;;;-7.79;58.31;99067.96;78782;1295;3052009;-76
2024/01/12 10:15:02;;;;;;;5.00;1.90;;;;;;;-7.71;57.58;99063.77;79809;1294;3013619;-71
2024/01/12 10:17:30;;;;;;;3.90;1.70;;;;;;;-7.77;57.28;99066.95;78626;1295;3057042;-73
2024/01/12 10:19:57;;;;;;;4.90;2.10;;;;;;;-7.40;56.93;99065.14;79861;1291;3012933;-72
2024/01/12 10:22:24;;;;;;;3.60;2.30;;;;;;;-7.46;56.73;99060.01;80032;1295;3012892;-72
2024/01/12 10:25:04;;;;;;;6.70;1.60;;;;;;;-7.72;56.84;99063.24;78696;1297;3025928;-70
2024/01/12 10:27:33;;;;;;;3.50;1.50;;;;;;;-7.98;57.13;99067.66;78753;1295;3053899;-73
2024/01/12 10:29:59;;;;;;;4.30;2.10;;;;;;;-7.99;56.88;99078.01;79970;1294;3013337;-72
2024/01/12 10:32:26;;;;;;;4.10;2.00;;;;;;;-8.28;57.61;99080.67;80196;1295;3011844;-70
2024/01/12 10:34:54;;;;;;;4.80;1.80;;;;;;;-8.49;58.20;99076.77;78796;1296;3048971;-69
2024/01/12 10:37:20;;;;;;;5.90;1.90;;;;;;;-8.61;58.67;99082.95;79946;1295;3013011;-69
2024/01/12 10:39:48;;;;;;;6.50;2.60;;;;;;;-8.38;58.76;99078.88;80007;1294;3011695;-70
2024/01/12 10:42:17;;;;;;;4.50;2.30;;;;;;;-8.13;58.97;99077.57;78772;1295;3052314;-70
2024/01/12 10:44:44;;;;;;;4.70;2.00;;;;;;;-7.96;57.91;99072.44;79808;1292;3013273;-70
2024/01/12 10:47:17;;;;;;;4.50;1.70;;;;;;;-8.02;57.56;99076.30;79839;1292;3011874;-71
2024/01/12 10:49:54;;;;;;;3.70;1.80;;;;;;;-7.78;57.28;99084.46;78534;1296;3048646;-70
2024/01/12 10:52:31;;;;;;;4.60;2.50;;;;;;;-7.63;56.49;99088.31;78521;1295;3052635;-70
2024/01/12 10:55:04;;;;;;;5.40;2.10;;;;;;;-7.40;56.76;99087.08;78732;1295;3049835;-72
2024/01/12 10:57:32;;;;;;;3.30;1.70;;;;;;;-7.23;55.84;99089.91;79962;1295;3011651;-72
2024/01/12 11:00:00;;;;;;;4.80;1.70;;;;;;;-7.51;55.72;99087.88;78642;1295;3052040;-73
2024/01/12 11:02:27;;;;;;;5.40;2.30;;;;;;;-7.64;55.35;99087.98;80060;1302;3013083;-69
2024/01/12 11:04:53;;;;;;;4.40;2.00;;;;;;;-7.18;55.88;99078.18;79727;1291;3013903;-70
2024/01/12 11:07:21;;;;;;;3.20;1.90;;;;;;;-6.54;54.25;99077.05;78310;1299;3028749;-73
2024/01/12 11:09:50;;;;;;;6.00;2.20;;;;;;;-6.56;53.65;99087.77;79758;1296;3013343;-72
2024/01/12 11:12:36;;;;;;;5.40;1.60;;;;;;;-6.69;53.19;99078.19;80049;1292;3011868;-70
2024/01/12 11:15:05;;;;;;;2.70;1.50;;;;;;;-6.96;53.20;99084.23;78563;1295;3053079;-72